createdAt,value
2018-02-13T00:00:39.883Z,1006.4
2018-02-13T00:01:42.238Z,1006.4
2018-02-13T00:02:44.605Z,1006.4
2018-02-13T00:03:46.965Z,1006.4
2018-02-13T00:04:49.338Z,1006.4
2018-02-13T00:05:51.723Z,1006.4
2018-02-13T00:06:54.079Z,1006.5
2018-02-13T00:07:56.431Z,1006.4
2018-02-13T00:08:59.078Z,1006.5
2018-02-13T00:10:01.459Z,1006.5
2018-02-13T00:11:03.811Z,1006.4
2018-02-13T00:12:06.181Z,1006.5
2018-02-13T00:13:08.549Z,1006.5
2018-02-13T00:14:11.189Z,1006.5
2018-02-13T00:15:13.556Z,1006.5
2018-02-13T00:16:15.928Z,1006.5
2018-02-13T00:17:18.575Z,1006.5
2018-02-13T00:18:20.958Z,1006.5
2018-02-13T00:19:23.326Z,1006.5
2018-02-13T00:20:25.700Z,1006.5
2018-02-13T00:21:28.621Z,1006.5
2018-02-13T00:22:31.279Z,1006.5
2018-02-13T00:23:33.637Z,1006.5
2018-02-13T00:24:36.017Z,1006.6
2018-02-13T00:25:38.377Z,1006.5
2018-02-13T00:26:40.749Z,1006.5
2018-02-13T00:27:43.393Z,1006.6
2018-02-13T00:28:45.757Z,1006.6
2018-02-13T00:29:48.117Z,1006.6
2018-02-13T00:30:50.483Z,1006.6
2018-02-13T00:31:52.847Z,1006.6
2018-02-13T00:32:55.229Z,1006.6
2018-02-13T00:33:57.594Z,1006.6
2018-02-13T00:34:59.968Z,1006.6
2018-02-13T00:36:02.336Z,1006.6
2018-02-13T00:37:04.713Z,1006.6
2018-02-13T00:38:07.075Z,1006.6
2018-02-13T00:39:09.442Z,1006.6
2018-02-13T00:40:11.803Z,1006.6
2018-02-13T00:41:14.444Z,1006.6
2018-02-13T00:42:16.814Z,1006.5
2018-02-13T00:43:19.167Z,1006.5
2018-02-13T00:44:21.531Z,1006.6
2018-02-13T00:45:23.957Z,1006.7
2018-02-13T00:46:26.272Z,1006.7
2018-02-13T00:47:28.647Z,1006.6
2018-02-13T00:48:31.036Z,1006.6
2018-02-13T00:49:33.657Z,1006.6
2018-02-13T00:50:36.034Z,1006.6
2018-02-13T00:51:38.427Z,1006.6
2018-02-13T00:52:40.759Z,1006.5
2018-02-13T00:53:43.133Z,1006.6
2018-02-13T00:54:45.498Z,1006.6
2018-02-13T00:55:47.860Z,1006.6
2018-02-13T00:56:50.232Z,1006.6
2018-02-13T00:57:52.591Z,1006.7
2018-02-13T00:58:54.953Z,1006.6
2018-02-13T00:59:57.356Z,1006.6
2018-02-13T01:00:59.724Z,1006.6
2018-02-13T01:02:02.381Z,1006.6
2018-02-13T01:03:04.750Z,1006.6
2018-02-13T01:04:07.399Z,1006.6
2018-02-13T01:05:09.768Z,1006.6
2018-02-13T01:06:12.142Z,1006.6
2018-02-13T01:07:14.494Z,1006.7
2018-02-13T01:08:16.862Z,1006.6
2018-02-13T01:09:19.240Z,1006.5
2018-02-13T01:10:21.599Z,1006.7
2018-02-13T01:11:23.963Z,1006.6
2018-02-13T01:12:26.336Z,1006.7
2018-02-13T01:13:28.698Z,1006.6
2018-02-13T01:14:31.065Z,1006.6
2018-02-13T01:15:33.439Z,1006.6
2018-02-13T01:16:35.787Z,1006.6
2018-02-13T01:17:38.155Z,1006.6
2018-02-13T01:18:40.534Z,1006.6
2018-02-13T01:19:42.898Z,1006.6
2018-02-13T01:20:45.578Z,1006.6
2018-02-13T01:21:47.941Z,1006.6
2018-02-13T01:22:50.298Z,1006.6
2018-02-13T01:23:52.682Z,1006.5
2018-02-13T01:24:55.334Z,1006.5
2018-02-13T01:25:57.698Z,1006.6
2018-02-13T01:27:00.080Z,1006.6
2018-02-13T01:28:02.443Z,1006.6
2018-02-13T01:29:04.814Z,1006.6
2018-02-13T01:30:07.186Z,1006.6
2018-02-13T01:31:10.121Z,1006.6
2018-02-13T01:32:12.763Z,1006.6
2018-02-13T01:33:15.432Z,1006.6
2018-02-13T01:34:17.795Z,1006.6
2018-02-13T01:35:20.163Z,1006.6
2018-02-13T01:36:22.808Z,1006.6
2018-02-13T01:37:25.181Z,1006.6
2018-02-13T01:38:27.544Z,1006.6
2018-02-13T01:39:30.470Z,1006.6
2018-02-13T01:40:32.844Z,1006.6
2018-02-13T01:41:35.485Z,1006.6
2018-02-13T01:42:37.846Z,1006.6
2018-02-13T01:43:40.487Z,1006.6
2018-02-13T01:44:42.862Z,1006.6
2018-02-13T01:45:45.229Z,1006.6
2018-02-13T01:46:47.599Z,1006.6
2018-02-13T01:47:49.969Z,1006.7
2018-02-13T01:48:52.437Z,1006.6
2018-02-13T01:49:54.809Z,1006.6
2018-02-13T01:50:58.027Z,1006.6
2018-02-13T01:52:00.396Z,1006.6
2018-02-13T01:53:03.041Z,1006.6
2018-02-13T01:54:05.696Z,1006.6
2018-02-13T01:55:08.340Z,1006.7
2018-02-13T01:56:10.706Z,1006.7
2018-02-13T01:57:13.370Z,1006.6
2018-02-13T01:58:15.731Z,1006.6
2018-02-13T01:59:18.098Z,1006.6
2018-02-13T02:00:20.750Z,1006.6
2018-02-13T02:01:23.118Z,1006.6
2018-02-13T02:02:25.488Z,1006.6
2018-02-13T02:03:27.861Z,1006.7
2018-02-13T02:04:30.225Z,1006.6
2018-02-13T02:05:32.605Z,1006.7
2018-02-13T02:06:34.970Z,1006.6
2018-02-13T02:07:37.334Z,1006.6
2018-02-13T02:08:39.705Z,1006.6
2018-02-13T02:09:42.072Z,1006.6
2018-02-13T02:10:44.435Z,1006.7
2018-02-13T02:11:46.809Z,1006.7
2018-02-13T02:12:49.181Z,1006.6
2018-02-13T02:13:51.549Z,1006.7
2018-02-13T02:14:53.932Z,1006.7
2018-02-13T02:15:56.567Z,1006.6
2018-02-13T02:16:59.217Z,1006.8
2018-02-13T02:18:01.582Z,1006.7
2018-02-13T02:19:03.951Z,1006.7
2018-02-13T02:20:06.318Z,1006.7
2018-02-13T02:21:08.682Z,1006.7
2018-02-13T02:22:11.044Z,1006.7
2018-02-13T02:23:13.428Z,1006.7
2018-02-13T02:24:16.073Z,1006.7
2018-02-13T02:25:18.439Z,1006.7
2018-02-13T02:26:21.086Z,1006.7
2018-02-13T02:27:23.456Z,1006.7
2018-02-13T02:28:25.818Z,1006.7
2018-02-13T02:29:28.481Z,1006.7
2018-02-13T02:30:30.839Z,1006.7
2018-02-13T02:31:33.210Z,1006.7
2018-02-13T02:32:35.574Z,1006.7
2018-02-13T02:33:37.945Z,1006.7
2018-02-13T02:34:40.594Z,1006.7
2018-02-13T02:35:42.963Z,1006.7
2018-02-13T02:36:45.324Z,1006.8
2018-02-13T02:37:47.695Z,1006.8
2018-02-13T02:38:50.337Z,1006.7
2018-02-13T02:39:52.991Z,1006.7
2018-02-13T02:40:55.365Z,1006.7
2018-02-13T02:41:57.732Z,1006.7
2018-02-13T02:43:00.098Z,1006.7
2018-02-13T02:44:02.744Z,1006.7
2018-02-13T02:45:05.104Z,1006.7
2018-02-13T02:46:07.470Z,1006.8
2018-02-13T02:47:09.829Z,1006.8
2018-02-13T02:48:12.189Z,1006.7
2018-02-13T02:49:14.575Z,1006.8
2018-02-13T02:50:17.214Z,1006.8
2018-02-13T02:51:19.579Z,1006.8
2018-02-13T02:52:21.947Z,1006.8
2018-02-13T02:53:24.305Z,1006.8
2018-02-13T02:54:26.685Z,1006.8
2018-02-13T02:55:29.057Z,1006.8
2018-02-13T02:56:31.414Z,1006.8
2018-02-13T02:57:33.786Z,1006.8
2018-02-13T02:58:36.144Z,1006.8
2018-02-13T02:59:38.509Z,1006.8
2018-02-13T03:00:40.880Z,1006.8
2018-02-13T03:01:43.522Z,1006.8
2018-02-13T03:02:45.890Z,1006.8
2018-02-13T03:03:48.547Z,1006.8
2018-02-13T03:04:50.910Z,1006.7
2018-02-13T03:05:53.274Z,1006.8
2018-02-13T03:06:55.921Z,1006.8
2018-02-13T03:07:58.288Z,1006.8
2018-02-13T03:09:00.653Z,1006.8
2018-02-13T03:10:03.021Z,1006.8
2018-02-13T03:11:05.665Z,1006.8
2018-02-13T03:12:08.028Z,1006.8
2018-02-13T03:13:10.692Z,1006.8
2018-02-13T03:14:13.049Z,1006.8
2018-02-13T03:15:15.701Z,1006.9
2018-02-13T03:16:18.348Z,1006.8
2018-02-13T03:17:20.715Z,1006.8
2018-02-13T03:18:23.087Z,1006.8
2018-02-13T03:19:25.454Z,1006.8
2018-02-13T03:20:27.818Z,1006.8
2018-02-13T03:21:30.486Z,1006.8
2018-02-13T03:22:32.846Z,1006.8
2018-02-13T03:23:35.214Z,1006.8
2018-02-13T03:24:37.581Z,1006.8
2018-02-13T03:25:39.950Z,1006.8
2018-02-13T03:26:42.315Z,1006.8
2018-02-13T03:27:44.687Z,1006.8
2018-02-13T03:28:47.044Z,1006.8
2018-02-13T03:29:49.422Z,1006.9
2018-02-13T03:30:52.071Z,1006.8
2018-02-13T03:31:54.446Z,1006.8
2018-02-13T03:32:56.806Z,1006.8
2018-02-13T03:33:59.174Z,1006.8
2018-02-13T03:35:01.542Z,1006.9
2018-02-13T03:36:03.914Z,1006.9
2018-02-13T03:37:06.290Z,1006.9
2018-02-13T03:38:08.663Z,1006.9
2018-02-13T03:39:11.014Z,1006.9
2018-02-13T03:40:13.379Z,1006.8
2018-02-13T03:41:16.033Z,1006.9
2018-02-13T03:42:18.403Z,1006.9
2018-02-13T03:43:20.762Z,1006.8
2018-02-13T03:44:23.125Z,1006.9
2018-02-13T03:45:25.493Z,1006.9
2018-02-13T03:46:27.870Z,1006.8
2018-02-13T03:47:30.238Z,1006.9
2018-02-13T03:48:32.872Z,1006.8
2018-02-13T03:49:35.232Z,1006.9
2018-02-13T03:50:37.600Z,1006.9
2018-02-13T03:51:39.984Z,1006.8
2018-02-13T03:52:42.347Z,1006.8
2018-02-13T03:53:44.701Z,1006.8
2018-02-13T03:54:47.368Z,1006.8
2018-02-13T03:55:49.736Z,1006.8
2018-02-13T03:56:52.100Z,1006.8
2018-02-13T03:57:55.021Z,1006.8
2018-02-13T03:58:57.664Z,1006.8
2018-02-13T04:00:00.035Z,1006.7
2018-02-13T04:01:02.691Z,1006.7
2018-02-13T04:02:05.055Z,1006.8
2018-02-13T04:03:07.408Z,1006.8
2018-02-13T04:04:09.783Z,1006.8
2018-02-13T04:05:12.718Z,1006.8
2018-02-13T04:06:15.082Z,1006.8
2018-02-13T04:07:17.454Z,1006.8
2018-02-13T04:08:19.821Z,1006.8
2018-02-13T04:09:22.187Z,1006.8
2018-02-13T04:10:24.549Z,1006.7
2018-02-13T04:11:26.912Z,1006.8
2018-02-13T04:12:29.297Z,1006.8
2018-02-13T04:13:31.660Z,1006.8
2018-02-13T04:14:34.032Z,1006.8
2018-02-13T04:15:36.392Z,1006.8
2018-02-13T04:16:39.042Z,1006.9
2018-02-13T04:17:41.694Z,1006.9
2018-02-13T04:18:44.065Z,1006.9
2018-02-13T04:19:46.421Z,1006.9
2018-02-13T04:20:48.791Z,1006.9
2018-02-13T04:21:51.154Z,1006.9
2018-02-13T04:22:53.808Z,1006.9
2018-02-13T04:23:56.736Z,1006.9
2018-02-13T04:24:59.092Z,1006.9
2018-02-13T04:26:01.743Z,1006.9
2018-02-13T04:27:04.121Z,1006.9
2018-02-13T04:28:06.473Z,1006.9
2018-02-13T04:29:08.836Z,1006.8
2018-02-13T04:30:11.207Z,1006.9
2018-02-13T04:31:13.575Z,1006.9
2018-02-13T04:32:15.945Z,1006.8
2018-02-13T04:33:18.319Z,1006.9
2018-02-13T04:34:20.674Z,1006.9
2018-02-13T04:35:23.041Z,1006.9
2018-02-13T04:36:25.422Z,1006.9
2018-02-13T04:37:27.782Z,1006.9
2018-02-13T04:38:30.148Z,1006.9
2018-02-13T04:39:32.799Z,1006.9
2018-02-13T04:40:35.154Z,1006.9
2018-02-13T04:41:37.799Z,1006.9
2018-02-13T04:42:40.165Z,1006.9
2018-02-13T04:43:42.526Z,1007
2018-02-13T04:44:44.898Z,1006.9
2018-02-13T04:45:47.261Z,1007
2018-02-13T04:46:49.626Z,1007
2018-02-13T04:47:52.269Z,1007
2018-02-13T04:48:54.691Z,1007
2018-02-13T04:49:57.052Z,1007
2018-02-13T04:50:59.421Z,1007
2018-02-13T04:52:02.063Z,1007
2018-02-13T04:53:04.432Z,1007
2018-02-13T04:54:07.072Z,1007
2018-02-13T04:55:09.714Z,1007
2018-02-13T04:56:12.075Z,1007
2018-02-13T04:57:14.437Z,1007
2018-02-13T04:58:16.798Z,1007
2018-02-13T04:59:19.174Z,1007
2018-02-13T05:00:21.544Z,1007
2018-02-13T05:01:23.912Z,1007
2018-02-13T05:02:26.561Z,1007
2018-02-13T05:03:28.928Z,1007
2018-02-13T05:04:31.287Z,1006.9
2018-02-13T05:05:33.652Z,1007
2018-02-13T05:06:36.302Z,1007
2018-02-13T05:07:38.682Z,1007
2018-02-13T05:08:41.047Z,1007
2018-02-13T05:09:43.403Z,1007
2018-02-13T05:10:45.775Z,1007
2018-02-13T05:11:48.417Z,1007
2018-02-13T05:12:50.790Z,1007
2018-02-13T05:13:53.154Z,1007
2018-02-13T05:14:55.512Z,1007
2018-02-13T05:15:57.876Z,1007
2018-02-13T05:17:00.535Z,1007
2018-02-13T05:18:02.894Z,1007
2018-02-13T05:19:05.540Z,1007
2018-02-13T05:20:07.899Z,1007
2018-02-13T05:21:10.260Z,1007
2018-02-13T05:22:12.636Z,1007
2018-02-13T05:23:15.000Z,1007
2018-02-13T05:24:17.351Z,1007
2018-02-13T05:25:19.720Z,1007
2018-02-13T05:26:22.096Z,1007
2018-02-13T05:27:24.464Z,1007
2018-02-13T05:28:26.829Z,1007
2018-02-13T05:29:29.189Z,1007
2018-02-13T05:30:31.837Z,1007
2018-02-13T05:31:34.200Z,1007.1
2018-02-13T05:32:36.566Z,1007.1
2018-02-13T05:33:38.917Z,1007
2018-02-13T05:34:41.276Z,1007.1
2018-02-13T05:35:43.642Z,1007.1
2018-02-13T05:36:46.004Z,1007.1
2018-02-13T05:37:48.375Z,1007.1
2018-02-13T05:38:50.745Z,1007.1
2018-02-13T05:39:53.397Z,1007.1
2018-02-13T05:40:55.747Z,1007.1
2018-02-13T05:41:58.125Z,1007.1
2018-02-13T05:43:00.490Z,1007.1
2018-02-13T05:44:03.137Z,1007.1
2018-02-13T05:45:05.501Z,1007.1
2018-02-13T05:46:08.140Z,1007
2018-02-13T05:47:10.501Z,1007.1
2018-02-13T05:48:12.875Z,1007
2018-02-13T05:49:15.512Z,1007.1
2018-02-13T05:50:17.884Z,1007.1
2018-02-13T05:51:20.239Z,1007.2
2018-02-13T05:52:22.604Z,1007.1
2018-02-13T05:53:25.247Z,1007.1
2018-02-13T05:54:27.623Z,1007.2
2018-02-13T05:55:29.981Z,1007.2
2018-02-13T05:56:32.353Z,1007.2
2018-02-13T05:57:34.999Z,1007.1
2018-02-13T05:58:37.943Z,1007.2
2018-02-13T05:59:40.316Z,1007.2
2018-02-13T06:00:42.692Z,1007.2
2018-02-13T06:01:45.046Z,1007.2
2018-02-13T06:02:47.414Z,1007.2
2018-02-13T06:03:49.812Z,1007.2
2018-02-13T06:04:52.136Z,1007.3
2018-02-13T06:05:54.496Z,1007.2
2018-02-13T06:06:56.898Z,1007.2
2018-02-13T06:07:59.246Z,1007.2
2018-02-13T06:09:02.241Z,1007.3
2018-02-13T06:10:04.889Z,1007.2
2018-02-13T06:11:07.246Z,1007.2
2018-02-13T06:12:09.609Z,1007.3
2018-02-13T06:13:11.971Z,1007.2
2018-02-13T06:14:14.328Z,1007.2
2018-02-13T06:15:16.696Z,1007.2
2018-02-13T06:16:19.059Z,1007.2
2018-02-13T06:17:21.428Z,1007.2
2018-02-13T06:18:23.792Z,1007.2
2018-02-13T06:19:26.721Z,1007.2
2018-02-13T06:20:29.087Z,1007.2
2018-02-13T06:21:31.459Z,1007.3
2018-02-13T06:22:33.825Z,1007.3
2018-02-13T06:23:36.194Z,1007.2
2018-02-13T06:24:38.554Z,1007.2
2018-02-13T06:25:41.212Z,1007.2
2018-02-13T06:26:43.570Z,1007.2
2018-02-13T06:27:45.935Z,1007.2
2018-02-13T06:28:48.598Z,1007.2
2018-02-13T06:29:50.963Z,1007.3
2018-02-13T06:30:53.328Z,1007.3
2018-02-13T06:31:55.698Z,1007.3
2018-02-13T06:32:58.609Z,1007.2
2018-02-13T06:34:00.982Z,1007.3
2018-02-13T06:35:03.345Z,1007.2
2018-02-13T06:36:05.981Z,1007.2
2018-02-13T06:37:08.629Z,1007.2
2018-02-13T06:38:10.995Z,1007.2
2018-02-13T06:39:13.359Z,1007.2
2018-02-13T06:40:15.722Z,1007.2
2018-02-13T06:41:18.369Z,1007.2
2018-02-13T06:42:20.727Z,1007.2
2018-02-13T06:43:23.094Z,1007.3
2018-02-13T06:44:25.466Z,1007.2
2018-02-13T06:45:27.825Z,1007.2
2018-02-13T06:46:30.197Z,1007.2
2018-02-13T06:47:32.563Z,1007.2
2018-02-13T06:48:34.926Z,1007.2
2018-02-13T06:49:37.303Z,1007.2
2018-02-13T06:50:39.674Z,1007.2
2018-02-13T06:51:42.038Z,1007.2
2018-02-13T06:52:44.402Z,1007.3
2018-02-13T06:53:46.769Z,1007.3
2018-02-13T06:54:49.128Z,1007.2
2018-02-13T06:55:51.495Z,1007.2
2018-02-13T06:56:54.146Z,1007.2
2018-02-13T06:57:56.507Z,1007.2
2018-02-13T06:58:58.885Z,1007.2
2018-02-13T07:00:01.250Z,1007.2
2018-02-13T07:01:03.619Z,1007.2
2018-02-13T07:02:05.983Z,1007.2
2018-02-13T07:03:08.639Z,1007.2
2018-02-13T07:04:11.015Z,1007.2
2018-02-13T07:05:13.377Z,1007.2
2018-02-13T07:06:16.045Z,1007.2
2018-02-13T07:07:18.403Z,1007.2
2018-02-13T07:08:20.767Z,1007.2
2018-02-13T07:09:23.133Z,1007.2
2018-02-13T07:10:25.776Z,1007.2
2018-02-13T07:11:28.139Z,1007.2
2018-02-13T07:12:30.512Z,1007.2
2018-02-13T07:13:32.883Z,1007.2
2018-02-13T07:14:35.535Z,1007.2
2018-02-13T07:15:37.895Z,1007.3
2018-02-13T07:16:40.295Z,1007.2
2018-02-13T07:17:42.630Z,1007.2
2018-02-13T07:18:44.993Z,1007.2
2018-02-13T07:19:47.633Z,1007.2
2018-02-13T07:20:50.278Z,1007.2
2018-02-13T07:21:52.640Z,1007.2
2018-02-13T07:22:55.316Z,1007.3
2018-02-13T07:23:57.686Z,1007.3
2018-02-13T07:25:00.319Z,1007.3
2018-02-13T07:26:02.972Z,1007.3
2018-02-13T07:27:05.624Z,1007.3
2018-02-13T07:28:07.998Z,1007.3
2018-02-13T07:29:10.374Z,1007.4
2018-02-13T07:30:12.735Z,1007.3
2018-02-13T07:31:15.099Z,1007.3
2018-02-13T07:32:17.474Z,1007.3
2018-02-13T07:33:19.836Z,1007.3
2018-02-13T07:34:22.195Z,1007.3
2018-02-13T07:35:24.561Z,1007.3
2018-02-13T07:36:26.931Z,1007.4
2018-02-13T07:37:29.288Z,1007.4
2018-02-13T07:38:31.647Z,1007.4
2018-02-13T07:39:34.019Z,1007.3
2018-02-13T07:40:36.663Z,1007.3
2018-02-13T07:41:39.033Z,1007.3
2018-02-13T07:42:41.739Z,1007.3
2018-02-13T07:43:44.046Z,1007.3
2018-02-13T07:44:46.418Z,1007.3
2018-02-13T07:45:48.792Z,1007.4
2018-02-13T07:46:51.144Z,1007.3
2018-02-13T07:47:53.525Z,1007.4
2018-02-13T07:48:56.195Z,1007.3
2018-02-13T07:49:58.838Z,1007.4
2018-02-13T07:51:01.492Z,1007.4
2018-02-13T07:52:03.853Z,1007.4
2018-02-13T07:53:06.221Z,1007.3
2018-02-13T07:54:08.585Z,1007.3
2018-02-13T07:55:10.955Z,1007.3
2018-02-13T07:56:13.603Z,1007.3
2018-02-13T07:57:15.981Z,1007.3
2018-02-13T07:58:18.345Z,1007.3
2018-02-13T07:59:20.713Z,1007.4
2018-02-13T08:00:23.081Z,1007.4
2018-02-13T08:01:25.443Z,1007.4
2018-02-13T08:02:27.809Z,1007.4
2018-02-13T08:03:30.189Z,1007.4
2018-02-13T08:04:32.550Z,1007.4
2018-02-13T08:05:35.198Z,1007.4
2018-02-13T08:06:37.570Z,1007.4
2018-02-13T08:07:39.943Z,1007.4
2018-02-13T08:08:42.318Z,1007.4
2018-02-13T08:09:44.982Z,1007.4
2018-02-13T08:10:47.337Z,1007.5
2018-02-13T08:11:49.708Z,1007.5
2018-02-13T08:12:52.087Z,1007.5
2018-02-13T08:13:55.016Z,1007.5
2018-02-13T08:14:57.714Z,1007.5
2018-02-13T08:16:00.084Z,1007.5
2018-02-13T08:17:02.455Z,1007.5
2018-02-13T08:18:04.829Z,1007.5
2018-02-13T08:19:07.237Z,1007.5
2018-02-13T08:20:10.261Z,1007.5
2018-02-13T08:21:12.625Z,1007.5
2018-02-13T08:22:15.007Z,1007.5
2018-02-13T08:23:17.371Z,1007.5
2018-02-13T08:24:19.748Z,1007.5
2018-02-13T08:25:22.397Z,1007.5
2018-02-13T08:26:24.773Z,1007.5
2018-02-13T08:27:27.148Z,1007.5
2018-02-13T08:28:29.524Z,1007.5
2018-02-13T08:29:31.891Z,1007.5
2018-02-13T08:30:34.262Z,1007.5
2018-02-13T08:31:36.637Z,1007.5
2018-02-13T08:32:39.290Z,1007.4
2018-02-13T08:33:41.659Z,1007.5
2018-02-13T08:34:44.043Z,1007.5
2018-02-13T08:35:46.411Z,1007.4
2018-02-13T08:36:48.787Z,1007.4
2018-02-13T08:37:51.166Z,1007.4
2018-02-13T08:38:53.548Z,1007.4
2018-02-13T08:39:55.927Z,1007.4
2018-02-13T08:40:58.288Z,1007.4
2018-02-13T08:42:00.657Z,1007.4
2018-02-13T08:43:03.034Z,1007.5
2018-02-13T08:44:05.686Z,1007.5
2018-02-13T08:45:08.058Z,1007.4
2018-02-13T08:46:10.421Z,1007.4
2018-02-13T08:47:12.807Z,1007.5
2018-02-13T08:48:15.169Z,1007.4
2018-02-13T08:49:17.549Z,1007.4
2018-02-13T08:50:20.204Z,1007.4
2018-02-13T08:51:23.152Z,1007.4
2018-02-13T08:52:25.526Z,1007.4
2018-02-13T08:53:27.908Z,1007.4
2018-02-13T08:54:30.271Z,1007.4
2018-02-13T08:55:32.656Z,1007.5
2018-02-13T08:56:35.026Z,1007.4
2018-02-13T08:57:37.399Z,1007.5
2018-02-13T08:58:39.775Z,1007.5
2018-02-13T08:59:42.430Z,1007.4
2018-02-13T09:00:44.801Z,1007.4
2018-02-13T09:01:47.190Z,1007.4
2018-02-13T09:02:49.551Z,1007.4
2018-02-13T09:03:51.934Z,1007.4
2018-02-13T09:04:54.309Z,1007.4
2018-02-13T09:05:56.983Z,1007.4
2018-02-13T09:06:59.642Z,1007.4
2018-02-13T09:08:02.299Z,1007.3
2018-02-13T09:09:04.672Z,1007.4
2018-02-13T09:10:07.058Z,1007.4
2018-02-13T09:11:09.710Z,1007.4
2018-02-13T09:12:12.369Z,1007.3
2018-02-13T09:13:14.746Z,1007.3
2018-02-13T09:14:17.130Z,1007.3
2018-02-13T09:15:19.497Z,1007.3
2018-02-13T09:16:22.168Z,1007.3
2018-02-13T09:17:24.537Z,1007.3
2018-02-13T09:18:26.920Z,1007.4
2018-02-13T09:19:29.294Z,1007.3
2018-02-13T09:20:31.678Z,1007.3
2018-02-13T09:21:34.057Z,1007.3
2018-02-13T09:22:36.443Z,1007.3
2018-02-13T09:23:38.818Z,1007.3
2018-02-13T09:24:41.198Z,1007.3
2018-02-13T09:25:43.568Z,1007.3
2018-02-13T09:26:46.503Z,1007.3
2018-02-13T09:27:48.870Z,1007.3
2018-02-13T09:28:51.249Z,1007.3
2018-02-13T09:29:53.624Z,1007.3
2018-02-13T09:30:56.010Z,1007.3
2018-02-13T09:31:58.383Z,1007.2
2018-02-13T09:33:00.765Z,1007.3
2018-02-13T09:34:03.420Z,1007.2
2018-02-13T09:35:05.791Z,1007.2
2018-02-13T09:36:08.185Z,1007.2
2018-02-13T09:37:10.847Z,1007.2
2018-02-13T09:38:13.212Z,1007.2
2018-02-13T09:39:15.599Z,1007.2
2018-02-13T09:40:17.997Z,1007.2
2018-02-13T09:41:20.361Z,1007.2
2018-02-13T09:42:22.743Z,1007.2
2018-02-13T09:43:25.121Z,1007.2
2018-02-13T09:44:27.502Z,1007.2
2018-02-13T09:45:29.893Z,1007.2
2018-02-13T09:46:32.268Z,1007.2
2018-02-13T09:47:34.665Z,1007.2
2018-02-13T09:48:37.036Z,1007.2
2018-02-13T09:49:39.411Z,1007.2
2018-02-13T09:50:41.801Z,1007.2
2018-02-13T09:51:44.191Z,1007.1
2018-02-13T09:52:46.565Z,1007.1
2018-02-13T09:53:48.946Z,1007.2
2018-02-13T09:54:51.328Z,1007.1
2018-02-13T09:55:53.706Z,1007.2
2018-02-13T09:56:56.368Z,1007.2
2018-02-13T09:57:59.024Z,1007.2
2018-02-13T09:59:01.405Z,1007.2
2018-02-13T10:00:03.797Z,1007.1
2018-02-13T10:01:06.180Z,1007.2
2018-02-13T10:02:08.541Z,1007.2
2018-02-13T10:03:10.932Z,1007.2
2018-02-13T10:04:13.315Z,1007.1
2018-02-13T10:05:15.696Z,1007.2
2018-02-13T10:06:18.077Z,1007.2
2018-02-13T10:07:20.739Z,1007.2
2018-02-13T10:08:23.400Z,1007.1
2018-02-13T10:09:25.784Z,1007.1
2018-02-13T10:10:28.453Z,1007.2
2018-02-13T10:11:30.829Z,1007.2
2018-02-13T10:12:33.211Z,1007.2
2018-02-13T10:13:35.596Z,1007.1
2018-02-13T10:14:37.969Z,1007.2
2018-02-13T10:15:40.352Z,1007.2
2018-02-13T10:16:42.726Z,1007.1
2018-02-13T10:17:45.172Z,1007.1
2018-02-13T10:18:47.832Z,1007.1
2018-02-13T10:19:50.212Z,1007.1
2018-02-13T10:20:52.595Z,1007.1
2018-02-13T10:21:54.974Z,1007.2
2018-02-13T10:22:57.345Z,1007.1
2018-02-13T10:23:59.742Z,1007.2
2018-02-13T10:25:02.123Z,1007.2
2018-02-13T10:26:04.790Z,1007.1
2018-02-13T10:27:07.180Z,1007.1
2018-02-13T10:28:09.831Z,1007.2
2018-02-13T10:29:12.209Z,1007.2
2018-02-13T10:30:14.597Z,1007.2
2018-02-13T10:31:16.975Z,1007.2
2018-02-13T10:32:19.357Z,1007.2
2018-02-13T10:33:22.020Z,1007.1
2018-02-13T10:34:24.393Z,1007.1
2018-02-13T10:35:26.774Z,1007.2
2018-02-13T10:36:29.159Z,1007.2
2018-02-13T10:37:31.538Z,1007.2
2018-02-13T10:38:33.925Z,1007.2
2018-02-13T10:39:36.311Z,1007.2
2018-02-13T10:40:38.974Z,1007.1
2018-02-13T10:41:41.354Z,1007.1
2018-02-13T10:42:43.743Z,1007
2018-02-13T10:43:46.109Z,1007.1
2018-02-13T10:44:48.508Z,1007.1
2018-02-13T10:45:51.165Z,1007.1
2018-02-13T10:46:53.556Z,1007.1
2018-02-13T10:47:55.929Z,1007.1
2018-02-13T10:48:58.318Z,1007
2018-02-13T10:50:00.976Z,1007.1
2018-02-13T10:51:03.363Z,1007.1
2018-02-13T10:52:05.740Z,1007
2018-02-13T10:53:08.403Z,1007.1
2018-02-13T10:54:10.790Z,1007
2018-02-13T10:55:13.463Z,1007
2018-02-13T10:56:16.128Z,1007.1
2018-02-13T10:57:18.811Z,1007
2018-02-13T10:58:21.189Z,1007.1
2018-02-13T10:59:23.583Z,1007
2018-02-13T11:00:25.957Z,1007
2018-02-13T11:01:28.340Z,1007
2018-02-13T11:02:30.722Z,1007
2018-02-13T11:03:33.106Z,1007
2018-02-13T11:04:35.494Z,1007
2018-02-13T11:05:37.886Z,1007
2018-02-13T11:06:40.264Z,1007
2018-02-13T11:07:42.664Z,1007
2018-02-13T11:08:45.045Z,1007
2018-02-13T11:09:47.423Z,1007
2018-02-13T11:10:49.807Z,1007
2018-02-13T11:11:52.193Z,1007
2018-02-13T11:12:54.582Z,1007
2018-02-13T11:13:56.961Z,1007
2018-02-13T11:14:59.341Z,1007.1
2018-02-13T11:16:01.731Z,1007
2018-02-13T11:17:04.110Z,1007
2018-02-13T11:18:06.490Z,1006.9
2018-02-13T11:19:08.881Z,1007
2018-02-13T11:20:11.261Z,1007
2018-02-13T11:21:13.640Z,1007
2018-02-13T11:22:16.657Z,1007
2018-02-13T11:23:19.050Z,1007
2018-02-13T11:24:21.432Z,1007
2018-02-13T11:25:23.830Z,1007
2018-02-13T11:26:26.213Z,1007
2018-02-13T11:27:28.600Z,1007
2018-02-13T11:28:30.984Z,1006.9
2018-02-13T11:29:33.363Z,1007
2018-02-13T11:30:35.751Z,1006.9
2018-02-13T11:31:38.135Z,1006.9
2018-02-13T11:32:40.511Z,1006.9
2018-02-13T11:33:42.906Z,1006.9
2018-02-13T11:34:45.565Z,1007
2018-02-13T11:35:47.951Z,1006.9
2018-02-13T11:36:50.332Z,1006.9
2018-02-13T11:37:52.720Z,1007
2018-02-13T11:38:55.377Z,1007
2018-02-13T11:39:58.038Z,1007
2018-02-13T11:41:00.409Z,1007
2018-02-13T11:42:02.806Z,1006.9
2018-02-13T11:43:05.195Z,1006.9
2018-02-13T11:44:07.578Z,1007
2018-02-13T11:45:09.956Z,1006.9
2018-02-13T11:46:12.342Z,1006.9
2018-02-13T11:47:14.729Z,1006.9
2018-02-13T11:48:17.118Z,1006.9
2018-02-13T11:49:19.493Z,1006.9
2018-02-13T11:50:21.878Z,1006.9
2018-02-13T11:51:24.537Z,1006.9
2018-02-13T11:52:26.925Z,1006.9
2018-02-13T11:53:29.312Z,1006.9
2018-02-13T11:54:31.688Z,1006.9
2018-02-13T11:55:34.350Z,1006.8
2018-02-13T11:56:36.743Z,1006.8
2018-02-13T11:57:39.120Z,1006.8
2018-02-13T11:58:41.499Z,1006.8
2018-02-13T11:59:43.883Z,1006.8
2018-02-13T12:00:46.270Z,1006.8
2018-02-13T12:01:48.649Z,1006.8
2018-02-13T12:02:51.331Z,1006.8
2018-02-13T12:03:53.716Z,1006.8
2018-02-13T12:04:56.154Z,1006.8
2018-02-13T12:05:58.472Z,1006.8
2018-02-13T12:07:00.868Z,1006.8
2018-02-13T12:08:03.248Z,1006.7
2018-02-13T12:09:05.629Z,1006.8
2018-02-13T12:10:08.007Z,1006.8
2018-02-13T12:11:10.394Z,1006.7
2018-02-13T12:12:12.778Z,1006.7
2018-02-13T12:13:15.168Z,1006.7
2018-02-13T12:14:17.542Z,1006.7
2018-02-13T12:15:19.925Z,1006.7
2018-02-13T12:16:22.585Z,1006.7
2018-02-13T12:17:24.971Z,1006.7
2018-02-13T12:18:27.637Z,1006.7
2018-02-13T12:19:30.024Z,1006.7
2018-02-13T12:20:32.391Z,1006.6
2018-02-13T12:21:34.791Z,1006.7
2018-02-13T12:22:37.167Z,1006.7
2018-02-13T12:23:39.553Z,1006.6
2018-02-13T12:24:41.939Z,1006.7
2018-02-13T12:25:44.336Z,1006.6
2018-02-13T12:26:46.701Z,1006.6
2018-02-13T12:27:49.104Z,1006.6
2018-02-13T12:28:51.488Z,1006.6
2018-02-13T12:29:53.867Z,1006.5
2018-02-13T12:30:56.253Z,1006.5
2018-02-13T12:31:58.932Z,1006.5
2018-02-13T12:33:01.316Z,1006.5
2018-02-13T12:34:03.700Z,1006.6
2018-02-13T12:35:06.086Z,1006.5
2018-02-13T12:36:08.460Z,1006.5
2018-02-13T12:37:10.845Z,1006.5
2018-02-13T12:38:13.244Z,1006.5
2018-02-13T12:39:15.614Z,1006.6
2018-02-13T12:40:18.006Z,1006.5
2018-02-13T12:41:20.392Z,1006.5
2018-02-13T12:42:22.772Z,1006.5
2018-02-13T12:43:25.161Z,1006.5
2018-02-13T12:44:27.539Z,1006.5
2018-02-13T12:45:29.919Z,1006.4
2018-02-13T12:46:32.318Z,1006.4
2018-02-13T12:47:34.702Z,1006.5
2018-02-13T12:48:37.085Z,1006.5
2018-02-13T12:49:39.472Z,1006.5
2018-02-13T12:50:41.851Z,1006.5
2018-02-13T12:51:44.236Z,1006.4
2018-02-13T12:52:46.623Z,1006.5
2018-02-13T12:53:48.999Z,1006.4
2018-02-13T12:54:51.380Z,1006.4
2018-02-13T12:55:53.770Z,1006.4
2018-02-13T12:56:56.155Z,1006.4
2018-02-13T12:57:58.541Z,1006.4
2018-02-13T12:59:00.934Z,1006.4
2018-02-13T13:00:03.338Z,1006.4
2018-02-13T13:01:05.700Z,1006.4
2018-02-13T13:02:08.091Z,1006.4
2018-02-13T13:03:10.470Z,1006.4
2018-02-13T13:04:12.855Z,1006.3